sensor_id;sensor_type;location;lat;lon;timestamp;pressure;altitude;pressure_sealevel;temperature;humidity
52343;BME280;38277;51.972;4.624;2023-04-20T00:06:25;102590.0;;;9.0;40.5
52343;BME280;38277;51.972;4.624;2023-04-20T00:15:27;102600.0;;;9.0;41.0
52343;BME280;38277;51.972;4.624;2023-04-20T00:19:59;102590.0;;;8.9;40.5
52343;BME280;38277;51.972;4.624;2023-04-20T00:29:03;102590.0;;;9.0;40.5
52343;BME280;38277;51.972;4.624;2023-04-20T00:33:33;102580.0;;;9.0;40.0
52343;BME280;38277;51.972;4.624;2023-04-20T00:49:50;102570.0;;;9.0;41.0
52343;BME280;38277;51.972;4.624;2023-04-20T00:52:50;102570.0;;;9.0;41.5
52343;BME280;38277;51.972;4.624;2023-04-20T01:00:31;102560.0;;;8.9;42.0
52343;BME280;38277;51.972;4.624;2023-04-20T01:09:36;102550.0;;;8.8;43.0
52343;BME280;38277;51.972;4.624;2023-04-20T01:14:07;102550.0;;;8.6;43.5
52343;BME280;38277;51.972;4.624;2023-04-20T01:20:10;102540.0;;;8.6;43.5
52343;BME280;38277;51.972;4.624;2023-04-20T01:27:39;102510.0;;;8.5;44.0
52343;BME280;38277;51.972;4.624;2023-04-20T01:36:42;102510.0;;;8.4;44.5
52343;BME280;38277;51.972;4.624;2023-04-20T01:41:10;102490.0;;;8.3;44.5
52343;BME280;38277;51.972;4.624;2023-04-20T01:47:11;102480.0;;;8.2;45.0
52343;BME280;38277;51.972;4.624;2023-04-20T01:54:18;102470.0;;;8.1;45.5
52343;BME280;38277;51.972;4.624;2023-04-20T02:03:21;102470.0;;;8.0;46.0
52343;BME280;38277;51.972;4.624;2023-04-20T02:06:22;102470.0;;;7.9;46.0
52343;BME280;38277;51.972;4.624;2023-04-20T02:15:43;102460.0;;;7.9;46.5
52343;BME280;38277;51.972;4.624;2023-04-20T02:21:45;102450.0;;;7.9;47.0
52343;BME280;38277;51.972;4.624;2023-04-20T02:30:31;102440.0;;;7.8;48.0
52343;BME280;38277;51.972;4.624;2023-04-20T02:39:38;102440.0;;;7.7;48.5
52343;BME280;38277;51.972;4.624;2023-04-20T02:44:07;102430.0;;;7.6;49.0
52343;BME280;38277;51.972;4.624;2023-04-20T02:48:32;102420.0;;;7.6;50.0
52343;BME280;38277;51.972;4.624;2023-04-20T02:53:06;102420.0;;;7.6;51.0
52343;BME280;38277;51.972;4.624;2023-04-20T02:57:21;102410.0;;;7.5;52.0
52343;BME280;38277;51.972;4.624;2023-04-20T03:06:40;102420.0;;;7.4;53.5
52343;BME280;38277;51.972;4.624;2023-04-20T03:10:54;102410.0;;;7.4;54.5
52343;BME280;38277;51.972;4.624;2023-04-20T03:15:32;102400.0;;;7.5;55.5
52343;BME280;38277;51.972;4.624;2023-04-20T03:19:53;102390.0;;;7.6;56.0
52343;BME280;38277;51.972;4.624;2023-04-20T03:24:20;102390.0;;;7.6;56.5
52343;BME280;38277;51.972;4.624;2023-04-20T03:28:48;102380.0;;;7.6;57.0
52343;BME280;38277;51.972;4.624;2023-04-20T03:33:27;102380.0;;;7.6;58.0
52343;BME280;38277;51.972;4.624;2023-04-20T03:42:24;102370.0;;;7.7;59.5
52343;BME280;38277;51.972;4.624;2023-04-20T03:47:00;102370.0;;;7.9;60.0
52343;BME280;38277;51.972;4.624;2023-04-20T03:51:43;102360.0;;;8.1;60.0
52343;BME280;38277;51.972;4.624;2023-04-20T03:56:12;102360.0;;;8.2;60.5
52343;BME280;38277;51.972;4.624;2023-04-20T04:01:09;102350.0;;;8.3;60.5
52343;BME280;38277;51.972;4.624;2023-04-20T04:10:12;102350.0;;;8.5;60.5
52343;BME280;38277;51.972;4.624;2023-04-20T04:22:16;102340.0;;;8.6;60.5
52343;BME280;38277;51.972;4.624;2023-04-20T04:34:20;102330.0;;;8.7;61.0
52343;BME280;38277;51.972;4.624;2023-04-20T04:37:21;102310.0;;;8.8;61.0
52343;BME280;38277;51.972;4.624;2023-04-20T04:46:25;102290.0;;;8.9;61.5
52343;BME280;38277;51.972;4.624;2023-04-20T04:58:29;102280.0;;;8.9;61.5
52343;BME280;38277;51.972;4.624;2023-04-20T05:04:31;102270.0;;;9.0;62.0
52343;BME280;38277;51.972;4.624;2023-04-20T05:13:34;102260.0;;;9.1;62.0
52343;BME280;38277;51.972;4.624;2023-04-20T05:22:37;102250.0;;;9.2;62.0
52343;BME280;38277;51.972;4.624;2023-04-20T05:30:35;102230.0;;;9.3;62.5
52343;BME280;38277;51.972;4.624;2023-04-20T05:36:38;102220.0;;;9.4;62.5
52343;BME280;38277;51.972;4.624;2023-04-20T05:44:15;102230.0;;;9.5;62.5
52343;BME280;38277;51.972;4.624;2023-04-20T05:50:17;102230.0;;;9.6;62.5
52343;BME280;38277;51.972;4.624;2023-04-20T05:57:40;102240.0;;;9.8;62.0
52343;BME280;38277;51.972;4.624;2023-04-20T06:03:42;102240.0;;;9.9;61.5
52343;BME280;38277;51.972;4.624;2023-04-20T06:11:09;102240.0;;;10.1;56.5
52343;BME280;38277;51.972;4.624;2023-04-20T06:17:11;102260.0;;;10.1;54.5
52343;BME280;38277;51.972;4.624;2023-04-20T06:24:31;102250.0;;;10.2;53.0
52343;BME280;38277;51.972;4.624;2023-04-20T06:30:32;102230.0;;;10.2;52.0
52343;BME280;38277;51.972;4.624;2023-04-20T06:33:33;102240.0;;;10.2;52.0
52343;BME280;38277;51.972;4.624;2023-04-20T06:38:05;102230.0;;;10.2;51.5
52343;BME280;38277;51.972;4.624;2023-04-20T06:47:15;102210.0;;;10.4;52.0
52343;BME280;38277;51.972;4.624;2023-04-20T06:51:17;102210.0;;;10.4;51.5
52343;BME280;38277;51.972;4.624;2023-04-20T06:56:14;102210.0;;;10.5;52.0
52343;BME280;38277;51.972;4.624;2023-04-20T07:00:45;102200.0;;;10.5;52.0
52343;BME280;38277;51.972;4.624;2023-04-20T07:05:07;102190.0;;;10.4;52.5
52343;BME280;38277;51.972;4.624;2023-04-20T07:09:18;102190.0;;;10.3;52.5
52343;BME280;38277;51.972;4.624;2023-04-20T07:14:08;102190.0;;;10.3;54.0
52343;BME280;38277;51.972;4.624;2023-04-20T07:27:27;102220.0;;;10.1;56.0
52343;BME280;38277;51.972;4.624;2023-04-20T07:41:08;102210.0;;;9.8;59.0
52343;BME280;38277;51.972;4.624;2023-04-20T07:46:05;102220.0;;;9.7;60.5
52343;BME280;38277;51.972;4.624;2023-04-20T07:55:09;102210.0;;;9.5;63.0
52343;BME280;38277;51.972;4.624;2023-04-20T08:04:11;102210.0;;;9.3;65.0
52343;BME280;38277;51.972;4.624;2023-04-20T08:19:16;102230.0;;;9.2;66.5
52343;BME280;38277;51.972;4.624;2023-04-20T08:22:17;102220.0;;;9.1;67.5
52343;BME280;38277;51.972;4.624;2023-04-20T08:31:20;102210.0;;;9.1;69.0
52343;BME280;38277;51.972;4.624;2023-04-20T08:40:24;102200.0;;;9.2;70.0
52343;BME280;38277;51.972;4.624;2023-04-20T08:52:28;102200.0;;;9.2;69.5
52343;BME280;38277;51.972;4.624;2023-04-20T08:58:31;102190.0;;;9.3;70.0
52343;BME280;38277;51.972;4.624;2023-04-20T09:10:39;102190.0;;;9.4;69.5
52343;BME280;38277;51.972;4.624;2023-04-20T09:16:36;102190.0;;;9.6;69.0
52343;BME280;38277;51.972;4.624;2023-04-20T09:28:40;102170.0;;;9.6;69.0
52343;BME280;38277;51.972;4.624;2023-04-20T09:34:43;102180.0;;;9.6;68.5
52343;BME280;38277;51.972;4.624;2023-04-20T09:43:45;102160.0;;;9.6;68.5
52343;BME280;38277;51.972;4.624;2023-04-20T09:52:49;102160.0;;;9.8;68.5
52343;BME280;38277;51.972;4.624;2023-04-20T10:01:52;102140.0;;;10.3;67.5
52343;BME280;38277;51.972;4.624;2023-04-20T10:17:00;102140.0;;;10.7;65.5
52343;BME280;38277;51.972;4.624;2023-04-20T10:19:58;102120.0;;;10.9;65.0
52343;BME280;38277;51.972;4.624;2023-04-20T10:32:02;102120.0;;;11.4;63.0
52343;BME280;38277;51.972;4.624;2023-04-20T10:41:05;102100.0;;;11.9;61.0
52343;BME280;38277;51.972;4.624;2023-04-20T10:47:08;102100.0;;;12.2;59.5
52343;BME280;38277;51.972;4.624;2023-04-20T10:56:10;102100.0;;;12.6;58.0
52343;BME280;38277;51.972;4.624;2023-04-20T11:05:13;102090.0;;;12.4;57.5
52343;BME280;38277;51.972;4.624;2023-04-20T11:17:18;102090.0;;;12.0;58.0
52343;BME280;38277;51.972;4.624;2023-04-20T11:29:25;102080.0;;;11.6;59.5
52343;BME280;38277;51.972;4.624;2023-04-20T11:32:24;102060.0;;;12.0;60.0
52343;BME280;38277;51.972;4.624;2023-04-20T11:41:27;102040.0;;;12.9;56.5
52343;BME280;38277;51.972;4.624;2023-04-20T11:53:30;102040.0;;;16.4;47.5
52343;BME280;38277;51.972;4.624;2023-04-20T11:59:32;102020.0;;;16.5;45.0
52343;BME280;38277;51.972;4.624;2023-04-20T12:02:33;102020.0;;;16.0;45.5
52343;BME280;38277;51.972;4.624;2023-04-20T12:08:35;102010.0;;;15.6;46.0
52343;BME280;38277;51.972;4.624;2023-04-20T12:18:21;102020.0;;;14.6;48.0
52343;BME280;38277;51.972;4.624;2023-04-20T12:21:21;102010.0;;;14.4;48.5
52343;BME280;38277;51.972;4.624;2023-04-20T12:27:23;102000.0;;;14.4;48.5
52343;BME280;38277;51.972;4.624;2023-04-20T12:36:26;102000.0;;;16.3;45.0
52343;BME280;38277;51.972;4.624;2023-04-20T12:42:28;101980.0;;;17.9;41.0
52343;BME280;38277;51.972;4.624;2023-04-20T12:45:30;101980.0;;;19.0;39.5
52343;BME280;38277;51.972;4.624;2023-04-20T12:51:33;101980.0;;;18.8;37.0
52343;BME280;38277;51.972;4.624;2023-04-20T12:57:35;101980.0;;;17.9;39.0
52343;BME280;38277;51.972;4.624;2023-04-20T13:11:13;101990.0;;;14.9;44.0
52343;BME280;38277;51.972;4.624;2023-04-20T13:18:43;102000.0;;;13.6;49.0
52343;BME280;38277;51.972;4.624;2023-04-20T13:35:15;101980.0;;;14.0;49.0
52343;BME280;38277;51.972;4.624;2023-04-20T13:38:15;101970.0;;;16.1;44.0
52343;BME280;38277;51.972;4.624;2023-04-20T13:45:34;101970.0;;;15.4;44.0
52343;BME280;38277;51.972;4.624;2023-04-20T13:51:36;101970.0;;;14.8;46.5
52343;BME280;38277;51.972;4.624;2023-04-20T14:01:52;101960.0;;;14.4;47.5
52343;BME280;38277;51.972;4.624;2023-04-20T14:04:53;101960.0;;;14.6;47.0
52343;BME280;38277;51.972;4.624;2023-04-20T14:10:55;101950.0;;;14.9;46.5
52343;BME280;38277;51.972;4.624;2023-04-20T14:13:56;101940.0;;;15.2;45.5
52343;BME280;38277;51.972;4.624;2023-04-20T14:26:00;101950.0;;;14.6;46.5
52343;BME280;38277;51.972;4.624;2023-04-20T14:32:02;101930.0;;;14.2;47.0
52343;BME280;38277;51.972;4.624;2023-04-20T14:41:06;101940.0;;;14.1;46.0
52343;BME280;38277;51.972;4.624;2023-04-20T14:50:09;101930.0;;;13.7;47.0
52343;BME280;38277;51.972;4.624;2023-04-20T14:59:12;101930.0;;;13.5;46.5
52343;BME280;38277;51.972;4.624;2023-04-20T15:08:15;101930.0;;;13.6;46.5
52343;BME280;38277;51.972;4.624;2023-04-20T15:17:18;101910.0;;;13.5;46.5
52343;BME280;38277;51.972;4.624;2023-04-20T15:26:21;101920.0;;;13.4;47.0
52343;BME280;38277;51.972;4.624;2023-04-20T15:38:25;101900.0;;;14.3;46.5
52343;BME280;38277;51.972;4.624;2023-04-20T15:50:30;101890.0;;;14.8;44.5
52343;BME280;38277;51.972;4.624;2023-04-20T15:53:31;101890.0;;;15.0;42.5
52343;BME280;38277;51.972;4.624;2023-04-20T16:02:34;101870.0;;;19.4;36.5
52343;BME280;38277;51.972;4.624;2023-04-20T16:26:42;101870.0;;;22.9;29.0
52343;BME280;38277;51.972;4.624;2023-04-20T16:29:43;101870.0;;;21.8;29.0
52343;BME280;38277;51.972;4.624;2023-04-20T16:38:46;101870.0;;;18.8;33.0
52343;BME280;38277;51.972;4.624;2023-04-20T16:50:50;101880.0;;;17.1;36.0
52343;BME280;38277;51.972;4.624;2023-04-20T17:02:55;101890.0;;;15.6;39.0
52343;BME280;38277;51.972;4.624;2023-04-20T17:05:56;101870.0;;;15.8;40.0
52343;BME280;38277;51.972;4.624;2023-04-20T17:14:59;101870.0;;;16.2;39.0
52343;BME280;38277;51.972;4.624;2023-04-20T17:24:04;101870.0;;;17.6;37.0
52343;BME280;38277;51.972;4.624;2023-04-20T17:33:05;101880.0;;;17.5;36.5
52343;BME280;38277;51.972;4.624;2023-04-20T17:42:08;101880.0;;;17.3;37.0
52343;BME280;38277;51.972;4.624;2023-04-20T17:51:12;101880.0;;;16.3;38.0
52343;BME280;38277;51.972;4.624;2023-04-20T18:03:15;101880.0;;;15.0;40.5
52343;BME280;38277;51.972;4.624;2023-04-20T18:11:14;101900.0;;;13.7;43.5
52343;BME280;38277;51.972;4.624;2023-04-20T18:20:17;101910.0;;;13.2;44.5
52343;BME280;38277;51.972;4.624;2023-04-20T18:32:21;101910.0;;;12.7;45.5
52343;BME280;38277;51.972;4.624;2023-04-20T18:38:23;101920.0;;;12.5;47.0
52343;BME280;38277;51.972;4.624;2023-04-20T18:53:28;101910.0;;;12.2;47.5
52343;BME280;38277;51.972;4.624;2023-04-20T18:56:29;101920.0;;;12.0;48.0
52343;BME280;38277;51.972;4.624;2023-04-20T19:08:34;101930.0;;;11.7;49.0
52343;BME280;38277;51.972;4.624;2023-04-20T19:17:37;101930.0;;;11.5;49.5
52343;BME280;38277;51.972;4.624;2023-04-20T19:23:40;101930.0;;;11.2;50.5
52343;BME280;38277;51.972;4.624;2023-04-20T19:32:42;101940.0;;;11.0;51.0
52343;BME280;38277;51.972;4.624;2023-04-20T19:44:46;101940.0;;;10.9;51.5
52343;BME280;38277;51.972;4.624;2023-04-20T19:50:49;101920.0;;;10.9;51.5
52343;BME280;38277;51.972;4.624;2023-04-20T19:59:51;101920.0;;;11.0;51.5
52343;BME280;38277;51.972;4.624;2023-04-20T20:08:55;101920.0;;;10.8;51.5
52343;BME280;38277;51.972;4.624;2023-04-20T20:17:58;101910.0;;;10.7;52.5
52343;BME280;38277;51.972;4.624;2023-04-20T20:30:02;101900.0;;;10.5;53.5
52343;BME280;38277;51.972;4.624;2023-04-20T20:36:04;101910.0;;;10.4;54.0
52343;BME280;38277;51.972;4.624;2023-04-20T20:45:08;101910.0;;;10.3;54.5
52343;BME280;38277;51.972;4.624;2023-04-20T20:54:10;101900.0;;;10.3;55.0
52343;BME280;38277;51.972;4.624;2023-04-20T21:03:14;101900.0;;;10.3;55.5
52343;BME280;38277;51.972;4.624;2023-04-20T21:12:16;101900.0;;;10.4;55.5
52343;BME280;38277;51.972;4.624;2023-04-20T21:21:20;101890.0;;;10.5;56.5
52343;BME280;38277;51.972;4.624;2023-04-20T21:30:23;101900.0;;;10.5;56.5
52343;BME280;38277;51.972;4.624;2023-04-20T21:42:27;101900.0;;;10.5;57.0
52343;BME280;38277;51.972;4.624;2023-04-20T21:48:29;101900.0;;;10.6;57.5
52343;BME280;38277;51.972;4.624;2023-04-20T21:57:32;101900.0;;;10.6;58.0
52343;BME280;38277;51.972;4.624;2023-04-20T22:06:35;101910.0;;;10.6;58.0
52343;BME280;38277;51.972;4.624;2023-04-20T22:21:40;101920.0;;;10.6;58.5
52343;BME280;38277;51.972;4.624;2023-04-20T22:24:42;101920.0;;;10.6;58.5
52343;BME280;38277;51.972;4.624;2023-04-20T22:33:45;101910.0;;;10.6;58.5
52343;BME280;38277;51.972;4.624;2023-04-20T22:42:48;101910.0;;;10.7;60.0
52343;BME280;38277;51.972;4.624;2023-04-20T22:48:50;101910.0;;;10.7;61.0
52343;BME280;38277;51.972;4.624;2023-04-20T22:54:52;101900.0;;;10.6;61.5
52343;BME280;38277;51.972;4.624;2023-04-20T22:59:14;101900.0;;;10.5;63.5
52343;BME280;38277;51.972;4.624;2023-04-20T23:05:16;101900.0;;;10.4;64.5
52343;BME280;38277;51.972;4.624;2023-04-20T23:11:18;101880.0;;;10.4;65.0
52343;BME280;38277;51.972;4.624;2023-04-20T23:14:19;101870.0;;;10.3;65.5
52343;BME280;38277;51.972;4.624;2023-04-20T23:21:26;101860.0;;;10.3;67.0
52343;BME280;38277;51.972;4.624;2023-04-20T23:27:28;101850.0;;;10.3;67.0
52343;BME280;38277;51.972;4.624;2023-04-20T23:33:30;101840.0;;;10.2;68.0
52343;BME280;38277;51.972;4.624;2023-04-20T23:39:34;101830.0;;;10.2;69.0
52343;BME280;38277;51.972;4.624;2023-04-20T23:45:34;101820.0;;;10.2;69.5
52343;BME280;38277;51.972;4.624;2023-04-20T23:53:12;101790.0;;;10.1;70.5
52343;BME280;38277;51.972;4.624;2023-04-20T23:59:14;101770.0;;;10.1;71.0
